Jinotega, Nicaragua
Current Conditions -  °F | °C
As of 1:00 PM on Tuesday 21 Oct 2014 (Local Time) from MNMG Reporting Station
Thunderstorm Thunderstorm  
Wind Chill: 81°   Ceiling: Unl
Heat Index: 86°   Visibility: 2.5mi
Dew Point: 75°   Wind: 9mph
Humidity: 84%   Direction: 250°WSW
Pressure: 29.77"   Gusts: NA
Location:  13.1°N, 86°W
Report Text: MNMG 211900Z 25008KT 4000 +TS FEW020CB SCT023 27/24 Q1008 A2977 CBRA/SW/W/NW CB/N/NE/SE/S TEMPO 5000 TSRA/VCRA
Loading
Personal Weather Stations






























Interactive Weather Map
Tropical Storm Tracking
New forecast layout! Learn more

10-Day Weather Forecast

Advertisements
Track Severe Weather on mobile